Hlavní strana
METAR-TAF:

METAR-TAF

Letiště :

Eastman, Georgie, Spojené státy americké

zeměpisná šířka: 32-12-59N, zeměpisná délka: 083-07-43W, výška: 93 m

Aktuální stav počasí

Zpráva byla vytvořena před 17 minutami, v 07:55 UTC
Bezvětří
Teplota 22°C
Vlhkost vzduchu 100%
Tlak 1016 hPa
Viditelnost: 16.1 km
Zataženo ve výšce 700 ft

METAR: KEZM 280755Z AUTO 00000KT 10SM OVC007 22/22 A2999 RMK AO2 T02220217

Čas: 04:12 (08:12 UTC)


TAF: chybějící

Stav a předpovědi počasí z více než 4 000 letišť (zprávy METAR a TAF).

Červené a žluté tečky na mapě představují dostupné meteorologické stanice.

Když kurzor umístíte na tečku, zobrazí se název stanice.

Pak kliknutím zobrazíte stav a předpověď počasí.

Chcete-li změnit mapu, kliknutím na zelené tlačítko se znaménkem +mapu přiblížíte, kliknutím na zelené tlačítko se znaménkem – mapu oddálíte a kliknutím na zelené šipky přejdete na sousední mapy.


METAR-TAF: